sensor_id;sensor_type;location;lat;lon;timestamp;P1;durP1;ratioP1;P2;durP2;ratioP2
18194;SDS011;9223;50.988;3.162;2022-10-03T00:04:08;6.22;;;4.25;;
18194;SDS011;9223;50.988;3.162;2022-10-03T00:10:22;6.43;;;4.30;;
18194;SDS011;9223;50.988;3.162;2022-10-03T00:16:35;8.00;;;4.32;;
18194;SDS011;9223;50.988;3.162;2022-10-03T00:22:46;5.85;;;4.28;;
18194;SDS011;9223;50.988;3.162;2022-10-03T00:28:55;6.03;;;4.60;;
18194;SDS011;9223;50.988;3.162;2022-10-03T00:35:03;6.68;;;4.28;;
18194;SDS011;9223;50.988;3.162;2022-10-03T00:47:47;9.40;;;4.63;;
18194;SDS011;9223;50.988;3.162;2022-10-03T00:54:00;8.88;;;4.88;;
18194;SDS011;9223;50.988;3.162;2022-10-03T01:00:14;7.60;;;5.85;;
18194;SDS011;9223;50.988;3.162;2022-10-03T01:06:22;9.32;;;5.38;;
18194;SDS011;9223;50.988;3.162;2022-10-03T01:12:35;7.18;;;4.57;;
18194;SDS011;9223;50.988;3.162;2022-10-03T01:18:43;9.82;;;4.70;;
18194;SDS011;9223;50.988;3.162;2022-10-03T01:24:52;6.78;;;5.03;;
18194;SDS011;9223;50.988;3.162;2022-10-03T01:31:02;8.80;;;5.00;;
18194;SDS011;9223;50.988;3.162;2022-10-03T01:37:09;5.30;;;4.68;;
18194;SDS011;9223;50.988;3.162;2022-10-03T01:43:16;8.30;;;5.20;;
18194;SDS011;9223;50.988;3.162;2022-10-03T01:49:26;6.53;;;4.75;;
18194;SDS011;9223;50.988;3.162;2022-10-03T01:55:36;8.48;;;5.43;;
18194;SDS011;9223;50.988;3.162;2022-10-03T02:01:48;7.18;;;4.22;;
18194;SDS011;9223;50.988;3.162;2022-10-03T02:07:59;6.03;;;4.60;;
18194;SDS011;9223;50.988;3.162;2022-10-03T02:14:14;6.45;;;3.85;;
18194;SDS011;9223;50.988;3.162;2022-10-03T02:20:29;7.07;;;4.63;;
18194;SDS011;9223;50.988;3.162;2022-10-03T02:26:50;8.05;;;5.10;;
18194;SDS011;9223;50.988;3.162;2022-10-03T02:39:38;5.90;;;4.60;;
18194;SDS011;9223;50.988;3.162;2022-10-03T02:45:57;5.93;;;4.45;;
18194;SDS011;9223;50.988;3.162;2022-10-03T02:52:12;6.82;;;5.03;;
18194;SDS011;9223;50.988;3.162;2022-10-03T03:11:12;6.32;;;5.30;;
18194;SDS011;9223;50.988;3.162;2022-10-03T03:17:22;6.40;;;4.57;;
18194;SDS011;9223;50.988;3.162;2022-10-03T03:23:35;6.50;;;4.57;;
18194;SDS011;9223;50.988;3.162;2022-10-03T03:29:44;6.03;;;4.30;;
18194;SDS011;9223;50.988;3.162;2022-10-03T03:35:53;7.45;;;4.88;;
18194;SDS011;9223;50.988;3.162;2022-10-03T03:42:01;5.78;;;4.18;;
18194;SDS011;9223;50.988;3.162;2022-10-03T03:54:37;6.30;;;4.20;;
18194;SDS011;9223;50.988;3.162;2022-10-03T04:00:51;10.50;;;4.80;;
18194;SDS011;9223;50.988;3.162;2022-10-03T04:07:00;5.88;;;3.88;;
18194;SDS011;9223;50.988;3.162;2022-10-03T04:13:12;5.03;;;3.78;;
18194;SDS011;9223;50.988;3.162;2022-10-03T04:19:22;6.88;;;4.10;;
18194;SDS011;9223;50.988;3.162;2022-10-03T04:25:37;7.07;;;4.00;;
18194;SDS011;9223;50.988;3.162;2022-10-03T04:31:48;5.20;;;3.70;;
18194;SDS011;9223;50.988;3.162;2022-10-03T04:37:55;5.20;;;4.22;;
18194;SDS011;9223;50.988;3.162;2022-10-03T04:44:03;5.28;;;4.60;;
18194;SDS011;9223;50.988;3.162;2022-10-03T04:50:20;9.50;;;4.80;;
18194;SDS011;9223;50.988;3.162;2022-10-03T04:56:34;5.85;;;3.90;;
18194;SDS011;9223;50.988;3.162;2022-10-03T05:02:44;5.75;;;4.22;;
18194;SDS011;9223;50.988;3.162;2022-10-03T05:08:56;5.18;;;4.20;;
18194;SDS011;9223;50.988;3.162;2022-10-03T05:15:13;6.38;;;4.72;;
18194;SDS011;9223;50.988;3.162;2022-10-03T05:21:38;10.82;;;6.05;;
18194;SDS011;9223;50.988;3.162;2022-10-03T05:27:49;8.13;;;5.47;;
18194;SDS011;9223;50.988;3.162;2022-10-03T05:33:58;10.57;;;4.95;;
18194;SDS011;9223;50.988;3.162;2022-10-03T05:40:11;11.13;;;5.70;;
18194;SDS011;9223;50.988;3.162;2022-10-03T05:46:27;10.18;;;5.78;;
18194;SDS011;9223;50.988;3.162;2022-10-03T05:52:43;8.05;;;5.10;;
18194;SDS011;9223;50.988;3.162;2022-10-03T05:58:56;7.10;;;4.93;;
18194;SDS011;9223;50.988;3.162;2022-10-03T06:05:14;8.50;;;5.75;;
18194;SDS011;9223;50.988;3.162;2022-10-03T06:17:49;10.05;;;5.90;;
18194;SDS011;9223;50.988;3.162;2022-10-03T06:24:23;8.07;;;5.75;;
18194;SDS011;9223;50.988;3.162;2022-10-03T06:30:36;9.85;;;5.38;;
18194;SDS011;9223;50.988;3.162;2022-10-03T06:36:56;11.35;;;6.22;;
18194;SDS011;9223;50.988;3.162;2022-10-03T06:49:45;15.13;;;6.90;;
18194;SDS011;9223;50.988;3.162;2022-10-03T06:55:59;10.02;;;7.28;;
18194;SDS011;9223;50.988;3.162;2022-10-03T07:02:19;12.65;;;7.70;;
18194;SDS011;9223;50.988;3.162;2022-10-03T07:27:51;13.60;;;9.60;;
18194;SDS011;9223;50.988;3.162;2022-10-03T07:40:28;16.67;;;9.30;;
18194;SDS011;9223;50.988;3.162;2022-10-03T07:46:43;15.73;;;10.27;;
18194;SDS011;9223;50.988;3.162;2022-10-03T07:52:56;19.35;;;10.38;;
18194;SDS011;9223;50.988;3.162;2022-10-03T07:59:14;14.25;;;10.55;;
18194;SDS011;9223;50.988;3.162;2022-10-03T08:05:24;16.70;;;10.65;;
18194;SDS011;9223;50.988;3.162;2022-10-03T08:11:32;18.77;;;11.05;;
18194;SDS011;9223;50.988;3.162;2022-10-03T08:24:15;16.48;;;10.52;;
18194;SDS011;9223;50.988;3.162;2022-10-03T08:30:28;17.27;;;11.07;;
18194;SDS011;9223;50.988;3.162;2022-10-03T08:49:32;19.52;;;11.05;;
18194;SDS011;9223;50.988;3.162;2022-10-03T08:55:46;17.08;;;9.45;;
18194;SDS011;9223;50.988;3.162;2022-10-03T09:02:02;18.55;;;8.57;;
18194;SDS011;9223;50.988;3.162;2022-10-03T09:27:43;12.95;;;5.35;;
18194;SDS011;9223;50.988;3.162;2022-10-03T09:34:11;8.43;;;3.65;;
18194;SDS011;9223;50.988;3.162;2022-10-03T09:40:32;10.38;;;3.63;;
18194;SDS011;9223;50.988;3.162;2022-10-03T09:53:22;5.72;;;2.60;;
18194;SDS011;9223;50.988;3.162;2022-10-03T09:59:35;8.93;;;4.28;;
18194;SDS011;9223;50.988;3.162;2022-10-03T10:05:49;9.50;;;3.40;;
18194;SDS011;9223;50.988;3.162;2022-10-03T10:12:06;8.55;;;3.15;;
18194;SDS011;9223;50.988;3.162;2022-10-03T10:44:18;6.90;;;3.42;;
18194;SDS011;9223;50.988;3.162;2022-10-03T10:57:05;7.50;;;3.40;;
18194;SDS011;9223;50.988;3.162;2022-10-03T11:09:50;8.70;;;2.40;;
18194;SDS011;9223;50.988;3.162;2022-10-03T11:28:52;9.05;;;2.72;;
18194;SDS011;9223;50.988;3.162;2022-10-03T11:35:26;6.05;;;2.80;;
18194;SDS011;9223;50.988;3.162;2022-10-03T11:41:37;7.53;;;3.30;;
18194;SDS011;9223;50.988;3.162;2022-10-03T11:47:48;9.32;;;3.15;;
18194;SDS011;9223;50.988;3.162;2022-10-03T11:53:52;10.73;;;3.58;;
18194;SDS011;9223;50.988;3.162;2022-10-03T12:00:18;8.27;;;3.03;;
18194;SDS011;9223;50.988;3.162;2022-10-03T12:06:41;9.52;;;3.80;;
18194;SDS011;9223;50.988;3.162;2022-10-03T12:13:09;6.43;;;3.30;;
18194;SDS011;9223;50.988;3.162;2022-10-03T12:19:17;8.95;;;3.25;;
18194;SDS011;9223;50.988;3.162;2022-10-03T12:25:34;10.68;;;4.15;;
18194;SDS011;9223;50.988;3.162;2022-10-03T12:31:40;7.15;;;3.25;;
18194;SDS011;9223;50.988;3.162;2022-10-03T12:37:57;7.95;;;2.65;;
18194;SDS011;9223;50.988;3.162;2022-10-03T12:44:11;5.63;;;2.90;;
18194;SDS011;9223;50.988;3.162;2022-10-03T12:50:22;8.63;;;3.20;;
18194;SDS011;9223;50.988;3.162;2022-10-03T12:56:32;6.18;;;2.90;;
18194;SDS011;9223;50.988;3.162;2022-10-03T13:02:40;4.85;;;2.47;;
18194;SDS011;9223;50.988;3.162;2022-10-03T13:08:59;6.55;;;2.38;;
18194;SDS011;9223;50.988;3.162;2022-10-03T13:21:49;8.93;;;1.92;;
18194;SDS011;9223;50.988;3.162;2022-10-03T13:27:57;4.47;;;2.20;;
18194;SDS011;9223;50.988;3.162;2022-10-03T13:34:09;5.38;;;1.85;;
18194;SDS011;9223;50.988;3.162;2022-10-03T13:40:18;5.47;;;1.77;;
18194;SDS011;9223;50.988;3.162;2022-10-03T13:46:23;3.35;;;1.40;;
18194;SDS011;9223;50.988;3.162;2022-10-03T13:52:37;3.60;;;1.75;;
18194;SDS011;9223;50.988;3.162;2022-10-03T13:58:48;3.90;;;1.50;;
18194;SDS011;9223;50.988;3.162;2022-10-03T14:05:03;2.90;;;1.00;;
18194;SDS011;9223;50.988;3.162;2022-10-03T14:11:12;4.60;;;1.20;;
18194;SDS011;9223;50.988;3.162;2022-10-03T14:17:21;3.40;;;1.00;;
18194;SDS011;9223;50.988;3.162;2022-10-03T14:23:27;3.63;;;1.50;;
18194;SDS011;9223;50.988;3.162;2022-10-03T14:29:37;3.78;;;1.30;;
18194;SDS011;9223;50.988;3.162;2022-10-03T14:35:54;2.60;;;1.00;;
18194;SDS011;9223;50.988;3.162;2022-10-03T14:42:10;3.97;;;1.10;;
18194;SDS011;9223;50.988;3.162;2022-10-03T14:48:20;3.80;;;1.20;;
18194;SDS011;9223;50.988;3.162;2022-10-03T14:54:31;3.13;;;1.10;;
18194;SDS011;9223;50.988;3.162;2022-10-03T15:00:39;2.63;;;1.15;;
18194;SDS011;9223;50.988;3.162;2022-10-03T15:06:48;4.75;;;1.23;;
18194;SDS011;9223;50.988;3.162;2022-10-03T15:13:00;1.63;;;0.88;;
18194;SDS011;9223;50.988;3.162;2022-10-03T15:19:07;6.63;;;1.85;;
18194;SDS011;9223;50.988;3.162;2022-10-03T15:25:12;6.53;;;1.95;;
18194;SDS011;9223;50.988;3.162;2022-10-03T15:31:25;6.97;;;2.33;;
18194;SDS011;9223;50.988;3.162;2022-10-03T15:37:31;4.53;;;1.90;;
18194;SDS011;9223;50.988;3.162;2022-10-03T15:43:36;5.15;;;2.00;;
18194;SDS011;9223;50.988;3.162;2022-10-03T15:49:45;8.15;;;2.00;;
18194;SDS011;9223;50.988;3.162;2022-10-03T15:56:06;7.45;;;1.88;;
18194;SDS011;9223;50.988;3.162;2022-10-03T16:02:14;4.95;;;1.45;;
18194;SDS011;9223;50.988;3.162;2022-10-03T16:08:21;7.35;;;2.00;;
18194;SDS011;9223;50.988;3.162;2022-10-03T16:14:26;2.80;;;1.83;;
18194;SDS011;9223;50.988;3.162;2022-10-03T16:20:33;4.68;;;2.80;;
18194;SDS011;9223;50.988;3.162;2022-10-03T16:26:41;5.57;;;3.25;;
18194;SDS011;9223;50.988;3.162;2022-10-03T16:32:53;3.88;;;2.28;;
18194;SDS011;9223;50.988;3.162;2022-10-03T16:38:58;4.25;;;3.03;;
18194;SDS011;9223;50.988;3.162;2022-10-03T16:45:04;7.03;;;2.88;;
18194;SDS011;9223;50.988;3.162;2022-10-03T16:51:17;8.20;;;4.68;;
18194;SDS011;9223;50.988;3.162;2022-10-03T16:57:23;6.30;;;3.60;;
18194;SDS011;9223;50.988;3.162;2022-10-03T17:03:30;7.78;;;3.25;;
18194;SDS011;9223;50.988;3.162;2022-10-03T17:09:38;5.25;;;3.50;;
18194;SDS011;9223;50.988;3.162;2022-10-03T17:15:44;8.25;;;4.50;;
18194;SDS011;9223;50.988;3.162;2022-10-03T17:21:52;15.80;;;9.95;;
18194;SDS011;9223;50.988;3.162;2022-10-03T17:27:56;23.88;;;14.45;;
18194;SDS011;9223;50.988;3.162;2022-10-03T17:34:02;14.75;;;9.65;;
18194;SDS011;9223;50.988;3.162;2022-10-03T17:40:11;7.75;;;5.15;;
18194;SDS011;9223;50.988;3.162;2022-10-03T17:46:19;10.57;;;6.20;;
18194;SDS011;9223;50.988;3.162;2022-10-03T17:52:25;11.55;;;6.72;;
18194;SDS011;9223;50.988;3.162;2022-10-03T17:58:30;10.50;;;6.68;;
18194;SDS011;9223;50.988;3.162;2022-10-03T18:04:34;6.57;;;5.57;;
18194;SDS011;9223;50.988;3.162;2022-10-03T18:10:40;7.97;;;6.15;;
18194;SDS011;9223;50.988;3.162;2022-10-03T18:16:49;10.40;;;5.50;;
18194;SDS011;9223;50.988;3.162;2022-10-03T18:22:57;7.70;;;5.03;;
18194;SDS011;9223;50.988;3.162;2022-10-03T18:29:09;11.20;;;7.80;;
18194;SDS011;9223;50.988;3.162;2022-10-03T18:35:19;14.00;;;6.70;;
18194;SDS011;9223;50.988;3.162;2022-10-03T18:41:23;12.05;;;8.45;;
18194;SDS011;9223;50.988;3.162;2022-10-03T18:47:28;17.33;;;10.05;;
18194;SDS011;9223;50.988;3.162;2022-10-03T18:53:35;13.52;;;8.63;;
18194;SDS011;9223;50.988;3.162;2022-10-03T18:59:42;17.10;;;12.27;;
18194;SDS011;9223;50.988;3.162;2022-10-03T19:05:47;17.67;;;12.68;;
18194;SDS011;9223;50.988;3.162;2022-10-03T19:11:55;16.05;;;10.55;;
18194;SDS011;9223;50.988;3.162;2022-10-03T19:18:04;11.43;;;9.35;;
18194;SDS011;9223;50.988;3.162;2022-10-03T19:24:12;10.52;;;9.13;;
18194;SDS011;9223;50.988;3.162;2022-10-03T19:30:36;13.00;;;9.68;;
18194;SDS011;9223;50.988;3.162;2022-10-03T19:36:41;12.35;;;9.63;;
18194;SDS011;9223;50.988;3.162;2022-10-03T19:42:46;12.63;;;8.45;;
18194;SDS011;9223;50.988;3.162;2022-10-03T19:49:00;10.77;;;8.15;;
18194;SDS011;9223;50.988;3.162;2022-10-03T19:55:09;9.50;;;7.57;;
18194;SDS011;9223;50.988;3.162;2022-10-03T20:01:13;13.10;;;8.27;;
18194;SDS011;9223;50.988;3.162;2022-10-03T20:07:23;9.52;;;8.32;;
18194;SDS011;9223;50.988;3.162;2022-10-03T20:13:30;12.45;;;8.98;;
18194;SDS011;9223;50.988;3.162;2022-10-03T20:19:35;11.35;;;9.10;;
18194;SDS011;9223;50.988;3.162;2022-10-03T20:25:40;11.65;;;8.50;;
18194;SDS011;9223;50.988;3.162;2022-10-03T20:31:48;14.05;;;8.93;;
18194;SDS011;9223;50.988;3.162;2022-10-03T20:37:53;13.38;;;8.98;;
18194;SDS011;9223;50.988;3.162;2022-10-03T20:44:00;12.02;;;9.23;;
18194;SDS011;9223;50.988;3.162;2022-10-03T20:50:07;11.90;;;9.23;;
18194;SDS011;9223;50.988;3.162;2022-10-03T20:56:14;12.25;;;9.02;;
18194;SDS011;9223;50.988;3.162;2022-10-03T21:02:24;13.70;;;9.00;;
18194;SDS011;9223;50.988;3.162;2022-10-03T21:08:31;13.18;;;9.02;;
18194;SDS011;9223;50.988;3.162;2022-10-03T21:14:37;11.65;;;9.32;;
18194;SDS011;9223;50.988;3.162;2022-10-03T21:20:43;17.02;;;10.00;;
18194;SDS011;9223;50.988;3.162;2022-10-03T21:26:51;13.32;;;10.13;;
18194;SDS011;9223;50.988;3.162;2022-10-03T21:32:58;14.07;;;10.30;;
18194;SDS011;9223;50.988;3.162;2022-10-03T21:39:10;15.25;;;10.30;;
18194;SDS011;9223;50.988;3.162;2022-10-03T21:45:19;16.23;;;11.10;;
18194;SDS011;9223;50.988;3.162;2022-10-03T21:51:25;14.43;;;9.73;;
18194;SDS011;9223;50.988;3.162;2022-10-03T21:57:38;12.88;;;9.85;;
18194;SDS011;9223;50.988;3.162;2022-10-03T22:03:51;13.23;;;10.10;;
18194;SDS011;9223;50.988;3.162;2022-10-03T22:09:58;14.98;;;10.93;;
18194;SDS011;9223;50.988;3.162;2022-10-03T22:16:06;15.80;;;10.13;;
18194;SDS011;9223;50.988;3.162;2022-10-03T22:22:17;14.50;;;9.77;;
18194;SDS011;9223;50.988;3.162;2022-10-03T22:28:25;13.80;;;9.90;;
18194;SDS011;9223;50.988;3.162;2022-10-03T22:34:34;13.32;;;10.43;;
18194;SDS011;9223;50.988;3.162;2022-10-03T22:40:41;13.50;;;10.43;;
18194;SDS011;9223;50.988;3.162;2022-10-03T22:46:46;15.57;;;9.93;;
18194;SDS011;9223;50.988;3.162;2022-10-03T22:52:52;13.95;;;9.75;;
18194;SDS011;9223;50.988;3.162;2022-10-03T22:58:57;13.90;;;10.13;;
18194;SDS011;9223;50.988;3.162;2022-10-03T23:05:02;16.88;;;10.68;;
18194;SDS011;9223;50.988;3.162;2022-10-03T23:11:08;12.82;;;9.63;;
18194;SDS011;9223;50.988;3.162;2022-10-03T23:17:32;12.98;;;9.70;;
18194;SDS011;9223;50.988;3.162;2022-10-03T23:23:43;13.10;;;10.32;;
18194;SDS011;9223;50.988;3.162;2022-10-03T23:36:16;16.05;;;11.82;;
18194;SDS011;9223;50.988;3.162;2022-10-03T23:42:24;17.17;;;12.27;;
18194;SDS011;9223;50.988;3.162;2022-10-03T23:48:28;16.90;;;12.63;;
18194;SDS011;9223;50.988;3.162;2022-10-03T23:54:34;17.23;;;11.82;;
